createdAt,value
2022-08-22T00:02:47.979Z,101248.69
2022-08-22T00:03:27.920Z,101251.34
2022-08-22T00:09:48.736Z,101241.69
2022-08-22T00:15:43.737Z,101247.88
2022-08-22T00:22:02.160Z,101250.69
2022-08-22T00:27:55.370Z,101258.56
2022-08-22T00:33:42.195Z,101246.28
2022-08-22T00:39:34.543Z,101245.34
2022-08-22T00:45:48.072Z,101227.31
2022-08-22T00:52:18.853Z,101227.03
2022-08-22T00:58:29.822Z,101224.63
2022-08-22T01:04:35.648Z,101216.72
2022-08-22T01:10:52.727Z,101232.00
2022-08-22T01:16:59.179Z,101237.25
2022-08-22T01:23:10.875Z,101230.78
2022-08-22T01:29:28.537Z,101232.31
2022-08-22T01:35:44.258Z,101246.78
2022-08-22T01:42:10.944Z,101259.00
2022-08-22T01:48:22.125Z,101273.13
2022-08-22T01:54:27.363Z,101249.22
2022-08-22T02:00:18.948Z,101230.50
2022-08-22T02:06:42.285Z,101219.06
2022-08-22T02:12:41.864Z,101212.50
2022-08-22T02:18:42.227Z,101198.31
2022-08-22T02:24:54.622Z,101204.13
2022-08-22T02:30:51.675Z,101204.81
2022-08-22T02:36:53.859Z,101198.38
2022-08-22T02:42:52.140Z,101207.03
2022-08-22T02:49:00.238Z,101202.16
2022-08-22T02:55:00.922Z,101211.41
2022-08-22T03:01:14.101Z,101200.81
2022-08-22T03:07:26.124Z,101201.91
2022-08-22T03:13:33.840Z,101199.84
2022-08-22T03:19:52.898Z,101195.41
2022-08-22T03:25:46.065Z,101184.72
2022-08-22T03:31:33.535Z,101190.97
2022-08-22T03:37:30.466Z,101193.41
2022-08-22T03:43:51.792Z,101181.75
2022-08-22T03:50:04.533Z,101186.28
2022-08-22T03:56:15.276Z,101192.03
2022-08-22T04:02:43.115Z,101199.53
2022-08-22T04:09:02.622Z,101202.63
2022-08-22T04:15:10.066Z,101202.06
2022-08-22T04:21:09.981Z,101195.81
2022-08-22T04:27:06.131Z,101200.13
2022-08-22T04:32:56.011Z,101194.13
2022-08-22T04:38:53.836Z,101196.41
2022-08-22T04:44:47.554Z,101195.94
2022-08-22T04:50:57.690Z,101208.94
2022-08-22T04:57:25.572Z,101219.63
2022-08-22T05:03:16.832Z,101246.41
2022-08-22T05:09:10.895Z,101246.13
2022-08-22T05:15:18.956Z,101240.84
2022-08-22T05:21:13.948Z,101235.59
2022-08-22T05:27:11.323Z,101210.16
2022-08-22T05:33:12.871Z,101217.78
2022-08-22T05:39:05.069Z,101217.53
2022-08-22T05:44:51.966Z,101206.38
2022-08-22T05:50:46.396Z,101203.91
2022-08-22T05:56:41.251Z,101213.56
2022-08-22T06:03:06.475Z,101220.13
2022-08-22T06:09:03.197Z,101221.38
2022-08-22T06:15:02.666Z,101219.63
2022-08-22T06:21:02.836Z,101215.25
2022-08-22T06:26:52.272Z,101204.50
2022-08-22T06:32:59.116Z,101198.25
2022-08-22T06:38:53.166Z,101188.06
2022-08-22T06:44:47.147Z,101180.84
2022-08-22T06:50:36.368Z,101174.88
2022-08-22T06:56:27.189Z,101167.75
2022-08-22T07:02:28.020Z,101166.03
2022-08-22T07:08:19.820Z,101168.94
2022-08-22T07:14:12.288Z,101165.88
2022-08-22T07:20:12.479Z,101154.25
2022-08-22T07:26:14.889Z,101136.56
2022-08-22T07:32:19.643Z,101135.72
2022-08-22T07:38:34.874Z,101139.09
2022-08-22T07:44:38.807Z,101131.59
2022-08-22T07:51:45.986Z,101136.56
2022-08-22T07:59:05.698Z,101137.00
2022-08-22T08:05:01.306Z,101152.78
2022-08-22T08:10:51.779Z,101145.03
2022-08-22T08:16:50.932Z,101148.69
2022-08-22T08:22:40.789Z,101151.53
2022-08-22T08:28:34.614Z,101146.81
2022-08-22T08:34:25.945Z,101158.19
2022-08-22T08:40:56.585Z,101152.03
2022-08-22T08:47:21.267Z,101128.63
2022-08-22T09:00:13.810Z,101111.19
2022-08-22T09:07:25.333Z,101105.31
2022-08-22T09:13:40.867Z,101105.03
2022-08-22T09:34:54.840Z,101098.41
2022-08-22T09:48:40.536Z,101119.69
2022-08-22T09:54:50.774Z,101136.13
2022-08-22T10:00:51.396Z,101131.09
2022-08-22T10:06:59.755Z,101121.41
2022-08-22T10:13:10.450Z,101125.06
2022-08-22T10:19:10.057Z,101129.72
2022-08-22T10:25:36.907Z,101128.94
2022-08-22T10:31:59.378Z,101119.00
2022-08-22T10:38:16.407Z,101122.13
2022-08-22T10:44:27.436Z,101121.72
2022-08-22T10:50:31.831Z,101118.47
2022-08-22T10:56:34.336Z,101114.03
2022-08-22T11:02:46.718Z,101107.56
2022-08-22T11:08:59.038Z,101119.44
2022-08-22T11:15:02.931Z,101114.34
2022-08-22T11:21:00.666Z,101123.66
2022-08-22T11:34:23.279Z,101108.34
2022-08-22T11:40:21.919Z,101125.19
2022-08-22T11:46:23.784Z,101112.31
2022-08-22T11:52:30.942Z,101098.81
2022-08-22T11:58:46.565Z,101099.75
2022-08-22T12:04:33.704Z,101081.81
2022-08-22T12:10:39.093Z,101062.41
2022-08-22T12:16:51.319Z,101082.88
2022-08-22T12:23:00.357Z,101069.50
2022-08-22T12:29:15.237Z,101068.88
2022-08-22T12:35:57.275Z,101067.97
2022-08-22T12:42:10.920Z,101057.28
2022-08-22T12:48:10.043Z,101035.34
2022-08-22T12:54:08.472Z,101033.00
2022-08-22T13:00:09.698Z,101036.59
2022-08-22T13:06:07.832Z,101053.06
2022-08-22T13:12:20.011Z,101053.84
2022-08-22T13:18:30.337Z,101063.31
2022-08-22T13:24:56.953Z,101062.47
2022-08-22T13:30:59.835Z,101049.63
2022-08-22T13:45:20.623Z,101054.13
2022-08-22T13:51:36.937Z,101048.72
2022-08-22T13:57:41.237Z,101050.84
2022-08-22T14:03:48.719Z,101043.69
2022-08-22T14:09:56.651Z,101030.69
2022-08-22T14:15:46.223Z,101025.78
2022-08-22T14:21:41.209Z,101033.25
2022-08-22T14:27:36.120Z,101017.66
2022-08-22T14:33:27.693Z,100996.59
2022-08-22T14:39:28.346Z,101005.63
2022-08-22T14:45:22.351Z,100992.53
2022-08-22T14:51:21.700Z,101007.88
2022-08-22T14:57:20.763Z,100986.09
2022-08-22T15:03:23.138Z,100990.41
2022-08-22T15:09:28.831Z,100990.84
2022-08-22T15:15:55.034Z,100992.63
2022-08-22T15:21:45.645Z,100993.19
2022-08-22T15:27:36.040Z,100996.31
2022-08-22T15:33:29.412Z,100987.31
2022-08-22T15:40:08.250Z,100983.50
2022-08-22T15:46:23.020Z,100979.47
2022-08-22T15:52:23.445Z,100979.13
2022-08-22T15:58:26.182Z,100989.75
2022-08-22T16:04:14.732Z,100975.69
2022-08-22T16:10:10.216Z,100969.25
2022-08-22T16:16:07.183Z,100969.66
2022-08-22T16:21:54.478Z,100977.16
2022-08-22T16:27:54.643Z,100972.63
2022-08-22T16:33:43.674Z,100964.97
2022-08-22T16:39:58.628Z,100962.03
2022-08-22T16:45:48.979Z,100951.22
2022-08-22T16:51:56.127Z,100960.41
2022-08-22T16:58:05.736Z,100949.41
2022-08-22T17:05:59.583Z,100959.97
2022-08-22T17:11:27.015Z,100955.25
2022-08-22T17:17:58.244Z,100965.78
2022-08-22T17:24:05.949Z,100962.00
2022-08-22T17:30:10.403Z,100972.44
2022-08-22T17:36:27.246Z,100978.25
2022-08-22T17:42:52.052Z,100970.34
2022-08-22T17:49:02.776Z,100953.94
2022-08-22T17:54:59.680Z,100965.13
2022-08-22T18:01:04.838Z,100968.16
2022-08-22T18:07:11.092Z,100971.75
2022-08-22T18:13:06.680Z,100964.88
2022-08-22T18:18:59.714Z,100975.94
2022-08-22T18:25:02.036Z,100981.66
2022-08-22T18:30:57.611Z,100986.44
2022-08-22T18:37:05.593Z,100982.13
2022-08-22T18:43:19.914Z,100987.47
2022-08-22T18:49:21.143Z,100989.91
2022-08-22T18:55:10.726Z,100994.19
2022-08-22T19:01:23.324Z,101002.06
2022-08-22T19:07:51.154Z,101020.53
2022-08-22T19:14:12.953Z,101026.91
2022-08-22T19:20:26.006Z,101017.88
2022-08-22T19:26:35.861Z,101027.25
2022-08-22T19:32:53.526Z,101033.53
2022-08-22T19:39:09.022Z,101036.41
2022-08-22T19:44:56.574Z,101037.56
2022-08-22T19:50:43.805Z,101030.72
2022-08-22T19:57:06.990Z,101036.88
2022-08-22T20:03:05.392Z,101040.69
2022-08-22T20:09:13.516Z,101035.06
2022-08-22T20:15:16.890Z,101038.00
2022-08-22T20:21:16.516Z,101034.63
2022-08-22T20:27:21.727Z,101026.56
2022-08-22T20:40:55.652Z,101016.97
2022-08-22T20:47:19.388Z,101021.97
2022-08-22T20:53:17.739Z,101009.31
2022-08-22T20:59:26.122Z,101006.72
2022-08-22T21:05:13.609Z,101008.44
2022-08-22T21:11:22.201Z,101008.63
2022-08-22T21:17:39.201Z,100999.09
2022-08-22T21:23:45.293Z,101006.50
2022-08-22T21:29:46.888Z,101007.22
2022-08-22T21:35:34.328Z,101017.06
2022-08-22T21:41:55.471Z,101013.84
2022-08-22T21:47:43.294Z,101011.28
2022-08-22T21:53:30.322Z,101018.34
2022-08-22T21:59:50.571Z,101013.22
2022-08-22T22:05:49.319Z,101020.28
2022-08-22T22:11:36.481Z,101019.16
2022-08-22T22:17:23.344Z,101018.06
2022-08-22T22:23:11.005Z,101006.03
2022-08-22T22:29:02.934Z,101007.03
2022-08-22T22:34:49.824Z,100995.84
2022-08-22T22:40:36.948Z,100985.09
2022-08-22T22:46:35.562Z,100993.81
2022-08-22T22:52:24.206Z,101007.22
2022-08-22T22:58:13.741Z,101008.50
2022-08-22T23:04:03.581Z,101013.88
2022-08-22T23:09:54.475Z,101027.41
2022-08-22T23:15:43.676Z,101029.09
2022-08-22T23:21:31.098Z,101032.03
2022-08-22T23:27:18.144Z,101015.91
2022-08-22T23:33:06.130Z,101018.94
2022-08-22T23:39:01.072Z,101013.78
2022-08-22T23:44:50.418Z,101019.84
2022-08-22T23:50:37.359Z,101007.94
2022-08-22T23:56:38.099Z,101003.03
